createdAt,value
2022-09-12T00:03:09.938Z,100.00
2022-09-12T00:08:12.753Z,100.00
2022-09-12T00:13:14.217Z,100.00
2022-09-12T00:18:16.886Z,100.00
2022-09-12T00:23:19.217Z,100.00
2022-09-12T00:28:20.605Z,100.00
2022-09-12T00:33:22.248Z,100.00
2022-09-12T00:38:23.809Z,100.00
2022-09-12T00:43:39.526Z,100.00
2022-09-12T00:48:55.941Z,100.00
2022-09-12T00:53:59.921Z,100.00
2022-09-12T00:59:06.973Z,100.00
2022-09-12T01:04:10.738Z,100.00
2022-09-12T01:09:17.007Z,100.00
2022-09-12T01:14:19.789Z,100.00
2022-09-12T01:20:00.182Z,100.00
2022-09-12T01:25:11.987Z,100.00
2022-09-12T01:30:39.342Z,100.00
2022-09-12T01:35:58.931Z,100.00
2022-09-12T01:41:26.956Z,100.00
2022-09-12T01:46:35.755Z,100.00
2022-09-12T01:51:53.314Z,100.00
2022-09-12T01:57:01.440Z,100.00
2022-09-12T02:02:17.961Z,100.00
2022-09-12T02:07:23.690Z,100.00
2022-09-12T02:12:29.377Z,100.00
2022-09-12T02:17:37.989Z,100.00
2022-09-12T02:22:41.796Z,100.00
2022-09-12T02:27:50.749Z,100.00
2022-09-12T02:33:01.484Z,100.00
2022-09-12T02:38:23.542Z,100.00
2022-09-12T02:43:25.082Z,100.00
2022-09-12T02:48:30.430Z,100.00
2022-09-12T02:53:32.288Z,100.00
2022-09-12T02:58:34.393Z,100.00
2022-09-12T03:03:54.908Z,100.00
2022-09-12T03:09:14.892Z,100.00
2022-09-12T03:14:53.684Z,100.00
2022-09-12T03:20:03.500Z,100.00
2022-09-12T03:25:42.378Z,100.00
2022-09-12T03:30:46.469Z,100.00
2022-09-12T03:35:49.166Z,100.00
2022-09-12T03:40:54.702Z,100.00
2022-09-12T03:45:56.597Z,100.00
2022-09-12T03:51:03.093Z,100.00
2022-09-12T03:56:09.666Z,100.00
2022-09-12T04:01:13.524Z,100.00
2022-09-12T04:06:17.973Z,100.00
2022-09-12T04:11:20.566Z,100.00
2022-09-12T04:16:22.055Z,100.00
2022-09-12T04:21:23.715Z,100.00
2022-09-12T04:26:25.163Z,100.00
2022-09-12T04:31:27.020Z,100.00
2022-09-12T04:36:29.539Z,100.00
2022-09-12T04:41:34.087Z,100.00
2022-09-12T04:46:38.176Z,100.00
2022-09-12T04:51:42.137Z,100.00
2022-09-12T04:56:46.299Z,100.00
2022-09-12T05:01:47.936Z,100.00
2022-09-12T05:06:50.140Z,100.00
2022-09-12T05:12:06.902Z,100.00
2022-09-12T05:17:08.405Z,100.00
2022-09-12T05:22:09.983Z,100.00
2022-09-12T05:27:11.489Z,100.00
2022-09-12T05:32:12.906Z,100.00
2022-09-12T05:37:14.404Z,100.00
2022-09-12T05:42:15.891Z,100.00
2022-09-12T05:47:17.279Z,100.00
2022-09-12T05:52:18.706Z,100.00
2022-09-12T05:57:20.163Z,100.00
2022-09-12T06:02:21.925Z,100.00
2022-09-12T06:07:23.416Z,100.00
2022-09-12T06:12:25.657Z,100.00
2022-09-12T06:17:27.109Z,100.00
2022-09-12T06:22:28.537Z,100.00
2022-09-12T06:27:30.161Z,100.00
2022-09-12T06:32:31.545Z,100.00
2022-09-12T06:37:32.955Z,100.00
2022-09-12T06:42:34.325Z,100.00
2022-09-12T06:47:35.907Z,100.00
2022-09-12T06:52:37.337Z,100.00
2022-09-12T06:57:38.731Z,100.00
2022-09-12T07:02:40.246Z,100.00
2022-09-12T07:07:41.688Z,100.00
2022-09-12T07:12:43.115Z,100.00
2022-09-12T07:17:44.609Z,100.00
2022-09-12T07:22:46.005Z,100.00
2022-09-12T07:27:51.093Z,100.00
2022-09-12T07:32:54.398Z,100.00
2022-09-12T07:37:55.867Z,100.00
2022-09-12T07:42:57.264Z,100.00
2022-09-12T07:47:58.790Z,100.00
2022-09-12T07:53:00.366Z,100.00
2022-09-12T07:58:01.770Z,100.00
2022-09-12T08:03:03.505Z,100.00
2022-09-12T08:08:07.988Z,100.00
2022-09-12T08:13:10.804Z,100.00
2022-09-12T08:18:12.442Z,100.00
2022-09-12T08:23:13.899Z,100.00
2022-09-12T08:28:15.463Z,98.92
2022-09-12T08:33:17.023Z,97.70
2022-09-12T08:38:19.587Z,98.00
2022-09-12T08:43:47.864Z,97.77
2022-09-12T08:48:51.851Z,99.16
2022-09-12T08:53:56.362Z,97.30
2022-09-12T08:58:57.845Z,99.43
2022-09-12T09:04:32.757Z,97.26
2022-09-12T09:09:44.349Z,96.16
2022-09-12T09:15:25.501Z,94.33
2022-09-12T09:20:44.861Z,93.33
2022-09-12T09:26:10.013Z,91.22
2022-09-12T09:31:19.797Z,91.67
2022-09-12T09:36:42.357Z,87.75
2022-09-12T09:42:00.922Z,80.49
2022-09-12T09:47:02.676Z,82.21
2022-09-12T09:52:07.101Z,80.92
2022-09-12T09:57:36.399Z,73.93
2022-09-12T10:02:37.933Z,75.25
2022-09-12T10:07:50.312Z,72.79
2022-09-12T10:13:06.037Z,71.09
2022-09-12T10:18:07.445Z,69.29
2022-09-12T10:23:27.723Z,68.14
2022-09-12T10:28:36.566Z,66.72
2022-09-12T10:33:45.035Z,66.48
2022-09-12T10:38:53.396Z,64.07
2022-09-12T10:44:07.262Z,64.52
2022-09-12T10:49:21.936Z,63.74
2022-09-12T10:54:26.896Z,64.56
2022-09-12T10:59:38.686Z,64.08
2022-09-12T11:05:12.819Z,64.33
2022-09-12T11:10:24.254Z,64.33
2022-09-12T11:15:47.378Z,64.89
2022-09-12T11:20:57.734Z,69.79
2022-09-12T11:26:23.531Z,64.54
2022-09-12T11:31:56.111Z,65.87
2022-09-12T11:37:31.490Z,68.18
2022-09-12T11:42:37.476Z,63.50
2022-09-12T11:47:41.769Z,64.44
2022-09-12T11:52:43.402Z,62.83
2022-09-12T11:57:52.821Z,63.82
2022-09-12T12:03:37.016Z,61.62
2022-09-12T12:08:43.659Z,61.84
2022-09-12T12:13:59.143Z,61.95
2022-09-12T12:19:27.475Z,66.38
2022-09-12T12:24:28.998Z,63.42
2022-09-12T12:29:44.257Z,63.78
2022-09-12T12:34:47.641Z,64.08
2022-09-12T12:39:49.040Z,63.60
2022-09-12T12:44:50.927Z,63.34
2022-09-12T12:49:56.488Z,63.78
2022-09-12T12:55:02.025Z,64.33
2022-09-12T13:00:24.663Z,64.58
2022-09-12T13:05:27.979Z,65.80
2022-09-12T13:10:31.099Z,64.79
2022-09-12T13:15:35.381Z,62.36
2022-09-12T13:20:47.130Z,62.31
2022-09-12T13:25:53.369Z,60.40
2022-09-12T13:31:00.172Z,60.11
2022-09-12T13:36:25.835Z,60.54
2022-09-12T13:41:44.823Z,61.78
2022-09-12T13:46:47.331Z,64.33
2022-09-12T13:52:18.989Z,59.42
2022-09-12T13:57:35.621Z,60.54
2022-09-12T14:02:40.107Z,59.38
2022-09-12T14:08:06.462Z,59.86
2022-09-12T14:13:24.097Z,63.23
2022-09-12T14:18:28.813Z,61.65
2022-09-12T14:23:31.895Z,65.45
2022-09-12T14:28:34.110Z,59.97
2022-09-12T14:34:08.350Z,59.69
2022-09-12T14:39:40.050Z,60.57
2022-09-12T14:44:52.011Z,61.89
2022-09-12T14:49:54.106Z,63.31
2022-09-12T14:55:23.123Z,68.27
2022-09-12T15:00:24.589Z,65.21
2022-09-12T15:05:27.278Z,68.57
2022-09-12T15:10:28.643Z,65.92
2022-09-12T15:15:30.447Z,64.96
2022-09-12T15:20:33.329Z,61.20
2022-09-12T15:25:34.881Z,69.01
2022-09-12T15:30:36.313Z,65.68
2022-09-12T15:35:38.121Z,67.04
2022-09-12T15:40:40.090Z,64.12
2022-09-12T15:45:43.458Z,64.78
2022-09-12T15:50:45.360Z,67.75
2022-09-12T15:55:46.746Z,64.98
2022-09-12T16:00:48.526Z,65.70
2022-09-12T16:05:50.952Z,64.13
2022-09-12T16:10:57.188Z,71.16
2022-09-12T16:15:59.713Z,74.39
2022-09-12T16:21:01.309Z,73.72
2022-09-12T16:26:05.915Z,76.35
2022-09-12T16:31:10.299Z,76.15
2022-09-12T16:36:14.291Z,77.12
2022-09-12T16:41:17.330Z,78.41
2022-09-12T16:46:21.801Z,79.58
2022-09-12T16:51:26.913Z,79.47
2022-09-12T16:56:28.453Z,80.40
2022-09-12T17:01:29.953Z,80.68
2022-09-12T17:06:33.122Z,80.18
2022-09-12T17:11:36.981Z,81.66
2022-09-12T17:16:41.403Z,80.80
2022-09-12T17:21:43.668Z,80.16
2022-09-12T17:26:46.354Z,83.18
2022-09-12T17:31:48.316Z,85.54
2022-09-12T17:36:49.843Z,90.97
2022-09-12T17:41:51.229Z,89.34
2022-09-12T17:46:52.637Z,92.60
2022-09-12T17:51:54.026Z,95.03
2022-09-12T17:56:55.411Z,96.90
2022-09-12T18:01:56.945Z,95.08
2022-09-12T18:06:58.552Z,96.17
2022-09-12T18:11:59.946Z,95.64
2022-09-12T18:17:01.469Z,94.43
2022-09-12T18:22:04.864Z,95.74
2022-09-12T18:27:06.293Z,96.54
2022-09-12T18:32:07.671Z,98.50
2022-09-12T18:37:09.065Z,94.31
2022-09-12T18:42:10.477Z,96.48
2022-09-12T18:47:11.899Z,96.10
2022-09-12T18:52:13.361Z,99.00
2022-09-12T18:57:14.854Z,100.00
2022-09-12T19:02:16.628Z,100.00
2022-09-12T19:07:18.056Z,100.00
2022-09-12T19:12:19.548Z,99.36
2022-09-12T19:17:20.930Z,100.00
2022-09-12T19:22:22.361Z,100.00
2022-09-12T19:27:23.935Z,100.00
2022-09-12T19:32:25.310Z,100.00
2022-09-12T19:37:29.547Z,100.00
2022-09-12T19:42:30.977Z,100.00
2022-09-12T19:47:32.370Z,100.00
2022-09-12T19:52:33.883Z,100.00
2022-09-12T19:57:35.430Z,100.00
2022-09-12T20:02:37.078Z,100.00
2022-09-12T20:07:38.638Z,100.00
2022-09-12T20:12:40.199Z,100.00
2022-09-12T20:17:41.584Z,100.00
2022-09-12T20:22:43.029Z,100.00
2022-09-12T20:27:44.500Z,100.00
2022-09-12T20:32:45.901Z,100.00
2022-09-12T20:37:47.369Z,100.00
2022-09-12T20:42:48.859Z,100.00
2022-09-12T20:47:50.264Z,100.00
2022-09-12T20:52:51.787Z,100.00
2022-09-12T20:57:53.224Z,100.00
2022-09-12T21:02:54.655Z,100.00
2022-09-12T21:07:56.137Z,100.00
2022-09-12T21:12:57.621Z,100.00
2022-09-12T21:17:59.017Z,100.00
2022-09-12T21:23:00.691Z,100.00
2022-09-12T21:28:02.370Z,100.00
2022-09-12T21:33:03.822Z,100.00
2022-09-12T21:38:05.283Z,100.00
2022-09-12T21:43:11.835Z,100.00
2022-09-12T21:48:14.127Z,100.00
2022-09-12T21:53:15.584Z,100.00
2022-09-12T21:58:17.213Z,100.00
2022-09-12T22:03:18.649Z,100.00
2022-09-12T22:08:20.061Z,100.00
2022-09-12T22:13:21.565Z,100.00
2022-09-12T22:18:22.992Z,100.00
2022-09-12T22:23:25.156Z,100.00
2022-09-12T22:28:27.014Z,100.00
2022-09-12T22:33:28.462Z,100.00
2022-09-12T22:38:29.947Z,100.00
2022-09-12T22:43:32.542Z,100.00
2022-09-12T22:48:34.014Z,100.00
2022-09-12T22:53:35.938Z,100.00
2022-09-12T22:58:37.462Z,100.00
2022-09-12T23:03:39.051Z,100.00
2022-09-12T23:08:40.637Z,100.00
2022-09-12T23:13:44.333Z,100.00
2022-09-12T23:18:46.565Z,100.00
2022-09-12T23:23:48.725Z,100.00
2022-09-12T23:28:53.325Z,100.00
2022-09-12T23:33:56.348Z,100.00
2022-09-12T23:38:58.141Z,100.00
2022-09-12T23:43:59.681Z,100.00
2022-09-12T23:49:01.263Z,100.00
2022-09-12T23:54:02.808Z,100.00
2022-09-12T23:59:04.268Z,100.00
